Kezdőlap
METAR-TAF:

METAR-TAF

Repülőterek :

Samsun, Törökország

földrajzi szélesség: 41-15-15N, földrajzi hosszúság: 036-34-03E, magasság: 5 m

Jelenlegi meteorológiai megfigyelések

A jelentés 1 órával és 14 perccel ezelõtt készült, 04:50 UTC
Szélcsend
Hőmérséklet 1°C
Páratartalom 93%
Légköri nyomás 1016 hPa
Látótávolság: 6000 m

METAR: LTFH 200450Z 00000KT 6000 NSC 01/00 Q1016 NOSIG

Idő: 09:04 (06:04 UTC)

Előrejelzés

A jelentés 1 órával és 24 perccel ezelõtt készült, 04:40 UTC
Az előrejelzés 20-én 06 óra UTC és 20-én 15 óra UTC között érvényes
Kelet-északkeleti szél 7 kt
Látótávolság 10 km, vagy több
felhőtlen 1500 m magasságban, és nincs gomolyfelhõ
20-én 10 óra UTC és 20-én 12 óra UTC között fokozatosan kialakuló
Kevés felhő 3600 lábon
Szórványos felhőzet 10000 lábon
Szakadozott felhőzet 20000 lábon

TAF: LTFH 200440Z 2006/2015 07007KT CAVOK BECMG 2010/2012 FEW036 SCT100 BKN200

Meteorológiai megfigyelések és előrejelzések több, mint 4000 repülőtéren (METAR és TAF jelentéseket).

A térképen piros és sárga pontok jelzik az elérhető meteorológiai állomásokat.

Mozgassa az egeret a pont fölött, hogy megjelenjen az állomás neve.

Azután kattintson az időjárási megfigyelések és előrejelzések megtekintéséhez.

A térkép megváltoztatása: kattintson a fekete keresztel jelölt zöld gombra ráközelítéshez, a vonallal jelölt zöld gombra távolításhoz, vagy a zöld nyilakra a szomszédos térképek eléréséhez.


METAR-TAF: